MAPA DE AEROPUERTO

INFORMACIÓN METAR y TAF

METAR FOR EGLC
ADDS - METARS form results

(1020 UTC 07 May 2021)
Data provider http://aviationweather.gov/metar/data/
 
METAR text: EGLC 070950Z AUTO 28009KT 240V320 9999 NCD 11/M03 Q1017
Conditions at: EGLC (LONDON CITY AIRP, GB) observed 0950 UTC 07 May 2021
Temperature: 11.0°C (52°F)
Dewpoint: -3.0°C (27°F) [RH = 37%]
Pressure (altimeter): 30.03 inches Hg (1017.0 mb)
Winds: from the W (280 degrees) at 10 MPH (9 knots; 4.6 m/s)
Visibility: 6 or more miles (10+ km)
Ceiling: at least 12,000 feet AGL
Clouds: sky clear below 12,000 feet AGL
Weather: no significant weather observed at this time

Forecast for: EGLC (LONDON CITY AIRP, GB)
Text: TAF EGLC 070754Z 0709/0718 29009KT 9999 FEW030
Forecast period: 0900 to 1200 UTC 07 May 2021
Forecast type: FROM: standard forecast or significant change
Winds: from the WNW (290 degrees) at 10 MPH (9 knots; 4.6 m/s)
Visibility: 6 or more miles (10+ km)
Ceiling: at least 12,000 feet AGL
Clouds: few clouds at 3000 feet AGL
Weather: no significant weather forecast for this period
Text: BECMG 0712/0715 22010KT
Forecast period: 1200 to 1800 UTC 07 May 2021
Forecast type: BECOMING: Conditions expected to become as follows by 1500 UTC 07 May 2021
Winds: from the SW (220 degrees) at 12 MPH (10 knots; 5.1 m/s)
Visibility: 6 or more miles (10+ km)
Ceiling: at least 12,000 feet AGL
Clouds: few clouds at 3000 feet AGL
Weather: no significant weather forecast for this period